Latest Weather Observations for Cape Leeuwin

IDW60801

Issued at 7:33 pm WST Thursday 28 May 2015 (issued every 30 minutes, with the page automatically refreshed every 10 minutes)

About weather observations | Map of weather stations | Latest weather observations for WA | Other Formats
Station Details ID: 009518 Name: CAPE LEEUWIN Lat: -34.37 Lon: 115.14 Height: 13.0 m
Data from the previous 72 hours. | See also: Recent months at Cape Leeuwin
Date/Time
WST
Temp
°C
App
Temp
°C
Dew
Point
Rel
Hum
%
Delta-T
°C
Wind Press
QNH
hPa
Press
MSL
hPa
Rain
since 9 am
mm
Dir
 
Spd
km/h
Gust
km/h
Spd
kts
Gust
kts
28/07:30pm 14.8 9.5 9.7 71 2.6 E 28 35 15 19 1026.3 1026.3 0.8
28/07:00pm 14.9 9.6 8.5 65 3.2 SE 26 32 14 17 1026.1 1026.1 0.8
28/06:30pm 14.6 8.9 8.2 65 3.2 ESE 28 37 15 20 1025.8 1025.8 0.8
28/06:00pm 14.3 10.4 7.3 63 3.4 SE 17 26 9 14 1025.6 1025.6 0.8
28/05:30pm 13.7 8.3 8.0 68 2.8 ESE 26 33 14 18 1025.5 1025.5 0.8
28/05:00pm 14.1 9.2 8.3 68 2.9 SE 24 33 13 18 1025.4 1025.4 0.8
28/04:30pm 14.1 8.7 8.0 66 3.0 SE 26 32 14 17 1025.3 1025.3 0.8
28/04:00pm 14.3 9.0 8.3 67 3.0 SE 26 33 14 18 1025.1 1025.1 0.8
28/03:30pm 15.0 10.9 7.7 61 3.6 SE 19 28 10 15 1025.1 1025.1 0.8
28/03:00pm 15.4 10.5 8.4 63 3.5 SSE 24 33 13 18 1025.1 1025.1 0.8
28/02:30pm 15.1 9.8 9.9 71 2.7 SSE 28 35 15 19 1024.9 1024.9 0.8
28/02:00pm 14.7 9.6 9.2 69 2.8 SSE 26 39 14 21 1024.9 1024.9 0.8
28/01:30pm 14.2 8.8 8.2 67 3.0 SSE 26 37 14 20 1025.0 1025.0 0.8
28/01:00pm 14.3 10.1 8.3 67 3.0 SSE 20 33 11 18 1025.1 1025.1 0.8
28/12:30pm 14.3 10.3 9.0 70 2.7 SSE 20 28 11 15 1025.3 1025.3 0.8
28/12:00pm 13.3 10.8 11.2 87 1.1 ENE 15 20 8 11 1025.7 1025.7 0.8
28/11:30am 13.1 12.3 11.0 87 1.1 NNE 6 9 3 5 1026.0 1026.0 0.8
28/11:00am 12.2 10.0 10.8 91 0.7 NNE 13 19 7 10 1026.1 1026.1 0.4
28/10:30am 12.8 10.8 10.3 85 1.3 NE 11 17 6 9 1026.0 1026.0 0.0
28/10:00am 14.0 11.3 10.3 78 1.9 E 15 22 8 12 1026.0 1026.0 0.0
28/09:30am 14.9 10.7 7.6 61 3.6 SSE 19 28 10 15 1025.7 1025.7 0.0
28/09:00am 14.3 9.6 6.1 58 3.9 SSE 20 28 11 15 1025.5 1025.5 1.6
28/08:30am 14.2 9.7 7.0 62 3.5 SSE 20 28 11 15 1025.3 1025.3 1.6
28/08:00am 14.0 9.6 7.4 64 3.2 SSE 20 30 11 16 1025.0 1025.0 1.6
28/07:30am 13.9 8.8 7.8 66 3.0 SE 24 32 13 17 1024.7 1024.7 1.6
28/07:00am 13.2 7.9 9.7 79 1.8 SE 28 35 15 19 1024.6 1024.6 1.6
28/06:30am 14.0 8.6 8.2 68 2.9 SSE 26 35 14 19 1024.2 1024.2 1.6
28/06:00am 14.3 9.5 7.3 63 3.4 SSE 22 28 12 15 1023.9 1023.9 1.6
28/05:30am 14.3 9.5 7.3 63 3.4 SSE 22 30 12 16 1023.7 1023.7 1.6
28/05:00am 14.3 9.6 7.8 65 3.2 SSE 22 33 12 18 1023.4 1023.4 1.6
28/04:30am 14.5 9.8 7.6 63 3.4 SSE 22 32 12 17 1023.3 1023.3 1.6
28/04:00am 14.5 8.5 7.1 61 3.6 S 28 37 15 20 1023.3 1023.3 1.6
28/03:30am 14.4 9.3 6.2 58 3.9 SSE 22 28 12 15 1023.4 1023.4 1.6
28/03:00am 14.3 9.7 6.4 59 3.8 S 20 28 11 15 1023.3 1023.3 1.6
28/02:30am 14.8 9.7 7.7 62 3.5 SSE 24 33 13 18 1023.4 1023.4 1.6
28/02:00am 14.6 9.9 6.2 57 4.0 SSE 20 30 11 16 1023.3 1023.3 1.6
28/01:30am 14.3 9.6 6.1 58 3.9 S 20 28 11 15 1023.2 1023.2 1.6
28/01:00am 14.6 10.3 7.7 63 3.4 S 20 28 11 15 1023.1 1023.1 1.6
28/12:30am 14.8 9.7 7.7 62 3.5 S 24 30 13 16 1023.2 1023.2 1.6
28/12:00am 14.8 9.8 8.0 64 3.4 S 24 33 13 18 1023.1 1023.1 1.6
 
Date/Time
WST
Temp
°C
App
Temp
°C
Dew
Point
Rel
Hum
%
Delta-T
°C
Wind Press
QNH
hPa
Press
MSL
hPa
Rain
since 9 am
mm
Dir
 
Spd
km/h
Gust
km/h
Spd
kts
Gust
kts
27/11:30pm 14.8 8.7 6.8 58 3.9 S 28 35 15 19 1023.1 1023.1 1.6
27/11:00pm 14.9 9.1 6.1 55 4.2 S 26 35 14 19 1023.0 1023.0 1.6
27/10:30pm 14.9 9.0 7.4 61 3.7 S 28 37 15 20 1023.0 1023.0 1.6
27/10:00pm 15.0 9.3 8.4 64 3.3 S 28 35 15 19 1022.8 1022.8 1.6
27/09:30pm 14.8 9.3 7.5 61 3.6 S 26 35 14 19 1022.8 1022.8 1.6
27/09:15pm 15.0 9.4 8.7 66 3.2 SSE 28 46 15 25 1022.7 1022.7 1.6
27/09:00pm 14.9 8.9 8.8 67 3.1 S 30 37 16 20 1022.6 1022.6 1.6
27/08:30pm 14.9 10.1 8.8 67 3.1 S 24 35 13 19 1022.5 1022.5 1.6
27/08:00pm 14.8 8.9 8.9 68 3.0 S 30 41 16 22 1022.4 1022.4 1.6
27/07:30pm 14.8 8.9 9.1 68 2.9 S 30 41 16 22 1022.1 1022.1 1.6
27/07:00pm 14.6 9.5 10.6 77 2.1 S 28 37 15 20 1021.8 1021.8 1.6
27/06:30pm 13.9 11.1 11.3 84 1.4 S 17 24 9 13 1021.6 1021.6 1.6
27/06:00pm 14.2 9.0 12.7 91 0.8 SSW 32 41 17 22 1021.6 1021.6 0.4
27/05:30pm 14.8 11.4 11.2 79 1.9 SW 20 28 11 15 1021.1 1021.1 0.2
27/05:00pm 14.3 9.6 12.1 87 1.2 SSW 28 37 15 20 1021.3 1021.3 0.2
27/04:30pm 15.9 10.1 10.8 71 2.7 SSW 32 39 17 21 1021.2 1021.2 0.2
27/04:00pm 16.6 10.7 10.6 67 3.2 SW 32 39 17 21 1021.1 1021.1 0.2
27/03:30pm 17.3 12.0 8.5 56 4.5 W 26 35 14 19 1021.0 1021.0 0.2
27/03:00pm 18.1 12.2 7.4 49 5.4 W 28 32 15 17 1021.0 1021.0 0.2
27/02:30pm 18.3 11.6 5.5 43 6.2 WSW 30 35 16 19 1021.1 1021.1 0.2
27/02:00pm 18.0 10.9 8.0 52 5.1 WSW 35 46 19 25 1021.3 1021.3 0.2
27/01:30pm 17.9 11.1 7.8 51 5.1 WSW 33 41 18 22 1021.4 1021.4 0.0
27/01:00pm 17.4 11.6 7.9 53 4.8 WSW 28 35 15 19 1021.6 1021.6 0.0
27/12:30pm 17.3 12.1 9.0 58 4.3 W 26 32 14 17 1022.1 1022.1 0.0
27/12:00pm 17.3 12.1 8.7 57 4.4 W 26 35 14 19 1022.7 1022.7 0.0
27/11:30am 18.1 13.2 7.1 48 5.5 WSW 22 32 12 17 1022.9 1022.9 0.0
27/11:00am 17.2 11.4 7.9 54 4.7 WSW 28 35 15 19 1023.1 1023.1 0.0
27/10:30am 16.9 13.3 8.2 56 4.4 WSW 17 24 9 13 1023.3 1023.3 0.0
27/10:00am 16.2 12.2 8.3 59 4.0 SW 19 26 10 14 1023.4 1023.4 0.0
27/09:30am 17.1 12.8 8.0 55 4.6 WSW 20 28 11 15 1023.4 1023.4 0.0
27/09:00am 16.5 10.3 6.2 50 5.0 SW 28 37 15 20 1023.4 1023.4 0.2
27/08:30am 15.8 10.5 6.8 55 4.4 SW 24 32 13 17 1023.5 1023.5 0.2
27/08:00am 15.7 10.8 8.4 62 3.7 SW 24 35 13 19 1023.3 1023.3 0.2
27/07:30am 16.1 11.6 6.9 54 4.5 W 20 24 11 13 1023.0 1023.0 0.2
27/07:00am 16.0 10.7 6.6 53 4.6 WSW 24 33 13 18 1022.9 1022.9 0.2
27/06:30am 15.8 9.6 6.3 53 4.6 WSW 28 37 15 20 1022.9 1022.9 0.2
27/06:00am 15.5 10.2 6.9 56 4.2 SW 24 35 13 19 1022.8 1022.8 0.2
27/05:30am 15.7 10.2 7.4 57 4.1 WSW 26 32 14 17 1022.7 1022.7 0.2
27/05:00am 15.3 10.9 6.4 55 4.3 WSW 19 26 10 14 1022.9 1022.9 0.2
27/04:30am 15.4 9.9 6.0 53 4.5 WSW 24 32 13 17 1022.9 1022.9 0.2
27/04:00am 15.1 9.5 5.6 53 4.5 WSW 24 32 13 17 1023.0 1023.0 0.2
27/03:30am 15.1 9.3 6.1 55 4.3 SW 26 32 14 17 1023.0 1023.0 0.2
27/03:00am 14.7 9.8 5.3 53 4.4 SW 20 28 11 15 1023.1 1023.1 0.2
27/02:30am 14.7 11.1 4.8 51 4.6 WSW 13 24 7 13 1023.2 1023.2 0.2
27/02:00am 14.6 9.8 4.4 50 4.7 WSW 19 28 10 15 1023.3 1023.3 0.2
27/01:30am 14.5 9.7 4.8 52 4.5 SW 19 24 10 13 1023.2 1023.2 0.2
27/01:00am 14.6 10.0 5.5 54 4.3 SSW 19 28 10 15 1023.3 1023.3 0.2
27/12:30am 14.6 9.8 4.4 50 4.7 SSW 19 28 10 15 1023.7 1023.7 0.2
27/12:00am 14.9 8.8 4.8 51 4.7 SW 26 33 14 18 1023.9 1023.9 0.2
 
Date/Time
WST
Temp
°C
App
Temp
°C
Dew
Point
Rel
Hum
%
Delta-T
°C
Wind Press
QNH
hPa
Press
MSL
hPa
Rain
since 9 am
mm
Dir
 
Spd
km/h
Gust
km/h
Spd
kts
Gust
kts
26/11:30pm 14.6 10.6 4.7 51 4.6 SSW 15 22 8 12 1024.2 1024.2 0.2
26/11:00pm 14.8 10.9 5.2 52 4.5 SW 15 24 8 13 1024.3 1024.3 0.2
26/10:30pm 14.5 10.8 4.5 51 4.6 SSW 13 20 7 11 1024.5 1024.5 0.2
26/10:00pm 14.9 9.5 4.5 49 4.8 SW 22 28 12 15 1024.5 1024.5 0.2
26/09:30pm 14.8 10.1 5.2 52 4.5 SW 19 30 10 16 1024.6 1024.6 0.2
26/09:00pm 14.7 10.0 5.1 52 4.5 S 19 26 10 14 1024.6 1024.6 0.2
26/08:30pm 14.7 10.1 5.6 54 4.3 SSW 19 26 10 14 1024.5 1024.5 0.2
26/08:00pm 14.5 9.3 5.6 55 4.2 SSW 22 30 12 16 1024.5 1024.5 0.2
26/07:30pm 14.6 9.9 6.2 57 4.0 SSW 20 26 11 14 1024.3 1024.3 0.2
26/07:00pm 14.7 9.9 5.6 54 4.3 SSW 20 30 11 16 1024.1 1024.1 0.2
26/06:30pm 14.8 10.2 6.5 57 4.0 SW 20 30 11 16 1024.0 1024.0 0.2
26/06:00pm 14.7 9.8 6.9 59 3.8 SSW 22 32 12 17 1023.8 1023.8 0.2
26/05:30pm 14.7 10.1 6.6 58 3.9 SSW 20 28 11 15 1023.7 1023.7 0.2
26/05:00pm 14.9 10.4 7.1 59 3.8 S 20 28 11 15 1023.6 1023.6 0.2
26/04:30pm 15.0 10.6 7.5 61 3.7 S 20 30 11 16 1023.6 1023.6 0.2
26/04:00pm 15.1 10.1 7.9 62 3.6 S 24 35 13 19 1023.6 1023.6 0.2
26/03:30pm 15.1 9.7 7.9 62 3.6 S 26 33 14 18 1023.6 1023.6 0.2
26/03:00pm 14.8 9.2 8.6 66 3.1 S 28 39 15 21 1023.5 1023.5 0.2
26/02:30pm 15.5 11.1 8.8 64 3.4 S 22 30 12 16 1023.4 1023.4 0.2
26/02:00pm 15.7 10.5 8.8 63 3.5 S 26 35 14 19 1023.5 1023.5 0.2
26/01:30pm 15.7 11.7 9.0 64 3.4 SSW 20 35 11 19 1023.4 1023.4 0.2
26/01:00pm 15.5 10.7 9.0 65 3.3 S 24 32 13 17 1023.4 1023.4 0.2
26/12:30pm 15.0 11.2 9.8 71 2.7 S 20 28 11 15 1023.5 1023.5 0.2
26/12:00pm 15.9 12.8 10.2 69 3.0 SSW 17 26 9 14 1023.6 1023.6 0.0
26/11:30am 14.3 9.8 11.3 82 1.6 SSW 26 33 14 18 1023.9 1023.9 0.0
26/11:00am 14.7 11.9 11.5 81 1.7 SSW 17 33 9 18 1023.9 1023.9 0.0
26/10:30am 14.6 8.9 11.8 83 1.5 SSW 33 43 18 23 1023.8 1023.8 0.0
26/10:00am 15.6 11.8 12.3 81 1.8 SSW 24 43 13 23 1023.4 1023.4 0.0
26/09:30am 15.7 11.1 11.0 73 2.5 SSW 26 33 14 18 1023.2 1023.2 0.0
26/09:00am 15.4 10.8 11.1 75 2.3 S 26 33 14 18 1023.0 1023.0 1.4
26/08:30am 15.4 10.2 12.9 85 1.4 SSW 32 41 17 22 1022.9 1022.9 1.4
26/08:00am 15.3 10.1 13.3 88 1.1 SW 33 48 18 26 1022.4 1022.4 1.2
26/07:57am 15.7 11.0 13.2 85 1.4 SW 30 48 16 26 1022.4 1022.4 1.2
26/07:30am 17.0 10.7 9.7 62 3.8 WSW 33 41 18 22 1021.9 1021.9 1.2
26/07:00am 16.8 10.1 9.5 62 3.8 WSW 35 41 19 22 1021.7 1021.7 1.2
26/06:30am 17.0 9.8 9.3 60 4.0 WSW 37 44 20 24 1021.3 1021.3 1.2
26/06:00am 17.0 9.9 9.5 61 3.9 WSW 37 44 20 24 1021.0 1021.0 1.2
26/05:30am 17.0 9.7 10.2 64 3.6 WSW 39 48 21 26 1020.9 1020.9 1.2
26/05:00am 17.0 9.3 10.0 63 3.7 WSW 41 50 22 27 1020.7 1020.7 1.2
26/04:30am 17.3 8.7 9.0 58 4.3 WSW 44 56 24 30 1020.6 1020.6 1.2
26/04:00am 17.3 9.0 9.9 62 3.9 WSW 44 56 24 30 1020.6 1020.6 1.2
26/03:30am 17.3 9.4 11.4 68 3.2 WSW 44 54 24 29 1020.6 1020.6 1.2
26/03:00am 17.1 10.4 12.2 73 2.7 WSW 39 48 21 26 1020.7 1020.7 1.2
26/02:30am 16.9 10.2 12.4 75 2.5 WSW 39 44 21 24 1020.8 1020.8 1.2
26/02:00am 17.0 9.6 12.5 75 2.5 W 43 48 23 26 1020.6 1020.6 1.2
26/01:30am 17.0 9.5 12.1 73 2.7 W 43 50 23 27 1020.7 1020.7 1.2
26/01:00am 17.6 11.2 11.9 69 3.1 W 37 44 20 24 1020.7 1020.7 1.2
26/12:30am 17.9 11.2 12.3 70 3.1 W 39 46 21 25 1020.8 1020.8 1.2
26/12:00am 17.8 10.4 11.3 65 3.5 W 41 50 22 27 1020.9 1020.9 1.2
 
Date/Time
WST
Temp
°C
App
Temp
°C
Dew
Point
Rel
Hum
%
Delta-T
°C
Wind Press
QNH
hPa
Press
MSL
hPa
Rain
since 9 am
mm
Dir
 
Spd
km/h
Gust
km/h
Spd
kts
Gust
kts
25/11:30pm 17.7 11.6 12.9 73 2.7 W 37 44 20 24 1021.0 1021.0 1.2
25/11:00pm 18.0 11.6 10.7 62 3.9 W 35 43 19 23 1021.1 1021.1 1.2
25/10:30pm 18.0 11.5 10.5 61 4.0 W 35 43 19 23 1021.2 1021.2 1.2
25/10:00pm 18.0 11.5 10.3 60 4.1 W 35 41 19 22 1021.3 1021.3 1.2
25/09:30pm 18.0 10.4 9.2 56 4.6 W 39 46 21 25 1021.3 1021.3 1.2
25/09:00pm 18.3 11.5 10.7 61 4.1 W 37 44 20 24 1021.1 1021.1 1.2
25/08:30pm 18.3 12.0 8.8 54 4.9 W 32 37 17 20 1021.1 1021.1 1.2
25/08:00pm 18.0 12.7 9.8 58 4.3 WNW 28 35 15 19 1021.1 1021.1 1.2

Other Formats:

Comma delimited format used in spreadsheet applications
http://www.bom.gov.au/fwo/IDW60801/IDW60801.94601.axf

JavaScript Object Notation format (JSON) in row-major order
http://www.bom.gov.au/fwo/IDW60801/IDW60801.94601.json